sensor_id;sensor_type;location;lat;lon;timestamp;P1;durP1;ratioP1;P2;durP2;ratioP2
5191;SDS011;2615;44.524;11.284;2023-06-19T00:02:24;13.07;;;11.57;;
5191;SDS011;2615;44.524;11.284;2023-06-19T00:04:53;12.57;;;10.97;;
5191;SDS011;2615;44.524;11.284;2023-06-19T00:07:21;11.97;;;10.80;;
5191;SDS011;2615;44.524;11.284;2023-06-19T00:09:49;12.57;;;11.23;;
5191;SDS011;2615;44.524;11.284;2023-06-19T00:12:18;13.03;;;11.47;;
5191;SDS011;2615;44.524;11.284;2023-06-19T00:14:46;13.90;;;10.40;;
5191;SDS011;2615;44.524;11.284;2023-06-19T00:17:14;13.17;;;11.23;;
5191;SDS011;2615;44.524;11.284;2023-06-19T00:19:43;11.90;;;10.70;;
5191;SDS011;2615;44.524;11.284;2023-06-19T00:22:13;13.37;;;12.00;;
5191;SDS011;2615;44.524;11.284;2023-06-19T00:24:41;12.10;;;10.90;;
5191;SDS011;2615;44.524;11.284;2023-06-19T00:27:09;13.20;;;11.80;;
5191;SDS011;2615;44.524;11.284;2023-06-19T00:29:39;13.50;;;9.93;;
5191;SDS011;2615;44.524;11.284;2023-06-19T00:32:07;15.97;;;11.10;;
5191;SDS011;2615;44.524;11.284;2023-06-19T00:34:35;13.07;;;10.37;;
5191;SDS011;2615;44.524;11.284;2023-06-19T00:37:04;14.10;;;11.27;;
5191;SDS011;2615;44.524;11.284;2023-06-19T00:39:32;10.47;;;9.47;;
5191;SDS011;2615;44.524;11.284;2023-06-19T00:42:00;12.30;;;10.07;;
5191;SDS011;2615;44.524;11.284;2023-06-19T00:44:29;11.77;;;10.60;;
5191;SDS011;2615;44.524;11.284;2023-06-19T00:46:58;14.30;;;10.50;;
5191;SDS011;2615;44.524;11.284;2023-06-19T00:49:30;12.23;;;10.87;;
5191;SDS011;2615;44.524;11.284;2023-06-19T00:51:59;11.40;;;10.30;;
5191;SDS011;2615;44.524;11.284;2023-06-19T00:54:27;14.03;;;10.40;;
5191;SDS011;2615;44.524;11.284;2023-06-19T00:56:58;15.07;;;11.57;;
5191;SDS011;2615;44.524;11.284;2023-06-19T00:59:27;12.07;;;10.80;;
5191;SDS011;2615;44.524;11.284;2023-06-19T01:01:55;12.60;;;10.87;;
5191;SDS011;2615;44.524;11.284;2023-06-19T01:04:25;13.97;;;10.97;;
5191;SDS011;2615;44.524;11.284;2023-06-19T01:06:54;12.00;;;10.10;;
5191;SDS011;2615;44.524;11.284;2023-06-19T01:09:26;11.33;;;9.90;;
5191;SDS011;2615;44.524;11.284;2023-06-19T01:11:58;12.53;;;10.40;;
5191;SDS011;2615;44.524;11.284;2023-06-19T01:14:31;11.27;;;10.17;;
5191;SDS011;2615;44.524;11.284;2023-06-19T01:17:05;10.50;;;9.40;;
5191;SDS011;2615;44.524;11.284;2023-06-19T01:19:35;10.97;;;9.77;;
5191;SDS011;2615;44.524;11.284;2023-06-19T01:22:05;11.60;;;10.50;;
5191;SDS011;2615;44.524;11.284;2023-06-19T01:24:33;11.80;;;10.50;;
5191;SDS011;2615;44.524;11.284;2023-06-19T01:27:02;14.30;;;10.60;;
5191;SDS011;2615;44.524;11.284;2023-06-19T01:29:30;12.50;;;10.90;;
5191;SDS011;2615;44.524;11.284;2023-06-19T01:31:59;11.60;;;9.60;;
5191;SDS011;2615;44.524;11.284;2023-06-19T01:34:31;16.17;;;9.80;;
5191;SDS011;2615;44.524;11.284;2023-06-19T01:37:07;11.83;;;9.97;;
5191;SDS011;2615;44.524;11.284;2023-06-19T01:39:38;10.00;;;9.10;;
5191;SDS011;2615;44.524;11.284;2023-06-19T01:42:07;12.40;;;9.33;;
5191;SDS011;2615;44.524;11.284;2023-06-19T01:44:37;15.53;;;10.50;;
5191;SDS011;2615;44.524;11.284;2023-06-19T01:47:09;11.73;;;10.30;;
5191;SDS011;2615;44.524;11.284;2023-06-19T01:49:38;12.63;;;9.53;;
5191;SDS011;2615;44.524;11.284;2023-06-19T01:52:08;10.67;;;9.53;;
5191;SDS011;2615;44.524;11.284;2023-06-19T01:54:36;12.67;;;9.03;;
5191;SDS011;2615;44.524;11.284;2023-06-19T01:57:04;11.70;;;10.33;;
5191;SDS011;2615;44.524;11.284;2023-06-19T01:59:33;12.73;;;9.33;;
5191;SDS011;2615;44.524;11.284;2023-06-19T02:02:01;13.33;;;10.60;;
5191;SDS011;2615;44.524;11.284;2023-06-19T02:04:30;12.77;;;9.73;;
5191;SDS011;2615;44.524;11.284;2023-06-19T02:06:58;9.90;;;8.90;;
5191;SDS011;2615;44.524;11.284;2023-06-19T02:09:28;10.60;;;9.50;;
5191;SDS011;2615;44.524;11.284;2023-06-19T02:11:56;10.77;;;9.67;;
5191;SDS011;2615;44.524;11.284;2023-06-19T02:14:24;11.70;;;10.13;;
5191;SDS011;2615;44.524;11.284;2023-06-19T02:16:52;11.30;;;9.40;;
5191;SDS011;2615;44.524;11.284;2023-06-19T02:19:20;11.40;;;9.90;;
5191;SDS011;2615;44.524;11.284;2023-06-19T02:21:48;9.93;;;8.93;;
5191;SDS011;2615;44.524;11.284;2023-06-19T02:24:16;12.90;;;9.83;;
5191;SDS011;2615;44.524;11.284;2023-06-19T02:26:46;14.43;;;10.47;;
5191;SDS011;2615;44.524;11.284;2023-06-19T02:29:14;15.03;;;10.50;;
5191;SDS011;2615;44.524;11.284;2023-06-19T02:31:42;11.23;;;10.07;;
5191;SDS011;2615;44.524;11.284;2023-06-19T02:34:11;10.43;;;9.33;;
5191;SDS011;2615;44.524;11.284;2023-06-19T02:36:39;11.00;;;9.07;;
5191;SDS011;2615;44.524;11.284;2023-06-19T02:39:07;11.10;;;9.30;;
5191;SDS011;2615;44.524;11.284;2023-06-19T02:41:36;12.57;;;11.00;;
5191;SDS011;2615;44.524;11.284;2023-06-19T02:44:06;13.57;;;9.93;;
5191;SDS011;2615;44.524;11.284;2023-06-19T02:46:34;10.83;;;9.20;;
5191;SDS011;2615;44.524;11.284;2023-06-19T02:49:02;12.07;;;10.77;;
5191;SDS011;2615;44.524;11.284;2023-06-19T02:51:30;9.93;;;8.93;;
5191;SDS011;2615;44.524;11.284;2023-06-19T02:53:58;9.83;;;8.87;;
5191;SDS011;2615;44.524;11.284;2023-06-19T02:56:26;11.70;;;9.97;;
5191;SDS011;2615;44.524;11.284;2023-06-19T02:58:55;12.23;;;9.40;;
5191;SDS011;2615;44.524;11.284;2023-06-19T03:01:24;12.93;;;9.33;;
5191;SDS011;2615;44.524;11.284;2023-06-19T03:03:52;12.90;;;9.60;;
5191;SDS011;2615;44.524;11.284;2023-06-19T03:06:20;17.03;;;10.93;;
5191;SDS011;2615;44.524;11.284;2023-06-19T03:08:48;10.97;;;9.70;;
5191;SDS011;2615;44.524;11.284;2023-06-19T03:11:17;10.60;;;9.60;;
5191;SDS011;2615;44.524;11.284;2023-06-19T03:13:46;11.73;;;9.80;;
5191;SDS011;2615;44.524;11.284;2023-06-19T03:16:14;10.27;;;9.27;;
5191;SDS011;2615;44.524;11.284;2023-06-19T03:18:44;10.67;;;9.20;;
5191;SDS011;2615;44.524;11.284;2023-06-19T03:21:15;10.60;;;9.37;;
5191;SDS011;2615;44.524;11.284;2023-06-19T03:23:45;10.70;;;9.33;;
5191;SDS011;2615;44.524;11.284;2023-06-19T03:26:13;11.60;;;9.53;;
5191;SDS011;2615;44.524;11.284;2023-06-19T03:28:42;16.07;;;10.23;;
5191;SDS011;2615;44.524;11.284;2023-06-19T03:31:10;10.90;;;9.80;;
5191;SDS011;2615;44.524;11.284;2023-06-19T03:33:38;12.33;;;9.87;;
5191;SDS011;2615;44.524;11.284;2023-06-19T03:36:07;11.47;;;10.30;;
5191;SDS011;2615;44.524;11.284;2023-06-19T03:38:36;11.50;;;9.80;;
5191;SDS011;2615;44.524;11.284;2023-06-19T03:41:04;13.47;;;9.80;;
5191;SDS011;2615;44.524;11.284;2023-06-19T03:43:32;9.93;;;8.90;;
5191;SDS011;2615;44.524;11.284;2023-06-19T03:46:00;10.40;;;9.40;;
5191;SDS011;2615;44.524;11.284;2023-06-19T03:48:28;11.60;;;9.50;;
5191;SDS011;2615;44.524;11.284;2023-06-19T03:50:56;12.30;;;9.07;;
5191;SDS011;2615;44.524;11.284;2023-06-19T03:53:27;11.57;;;9.40;;
5191;SDS011;2615;44.524;11.284;2023-06-19T03:55:55;10.70;;;9.60;;
5191;SDS011;2615;44.524;11.284;2023-06-19T03:58:23;9.47;;;8.47;;
5191;SDS011;2615;44.524;11.284;2023-06-19T04:00:51;13.37;;;8.83;;
5191;SDS011;2615;44.524;11.284;2023-06-19T04:03:19;11.57;;;9.20;;
5191;SDS011;2615;44.524;11.284;2023-06-19T04:05:48;10.70;;;9.60;;
5191;SDS011;2615;44.524;11.284;2023-06-19T04:08:16;12.13;;;10.30;;
5191;SDS011;2615;44.524;11.284;2023-06-19T04:10:45;10.40;;;8.80;;
5191;SDS011;2615;44.524;11.284;2023-06-19T04:13:14;11.90;;;9.27;;
5191;SDS011;2615;44.524;11.284;2023-06-19T04:15:42;11.70;;;9.17;;
5191;SDS011;2615;44.524;11.284;2023-06-19T04:18:15;11.67;;;9.20;;
5191;SDS011;2615;44.524;11.284;2023-06-19T04:20:43;10.87;;;8.80;;
5191;SDS011;2615;44.524;11.284;2023-06-19T04:23:11;10.70;;;9.37;;
5191;SDS011;2615;44.524;11.284;2023-06-19T04:25:40;11.50;;;9.77;;
5191;SDS011;2615;44.524;11.284;2023-06-19T04:28:09;10.97;;;9.73;;
5191;SDS011;2615;44.524;11.284;2023-06-19T04:30:37;10.73;;;8.90;;
5191;SDS011;2615;44.524;11.284;2023-06-19T04:33:06;12.13;;;9.93;;
5191;SDS011;2615;44.524;11.284;2023-06-19T04:35:35;10.90;;;9.80;;
5191;SDS011;2615;44.524;11.284;2023-06-19T04:38:06;11.20;;;9.00;;
5191;SDS011;2615;44.524;11.284;2023-06-19T04:40:35;13.63;;;10.10;;
5191;SDS011;2615;44.524;11.284;2023-06-19T04:43:03;12.57;;;9.27;;
5191;SDS011;2615;44.524;11.284;2023-06-19T04:45:34;11.40;;;9.90;;
5191;SDS011;2615;44.524;11.284;2023-06-19T04:48:02;12.60;;;9.60;;
5191;SDS011;2615;44.524;11.284;2023-06-19T04:50:31;13.90;;;10.80;;
5191;SDS011;2615;44.524;11.284;2023-06-19T04:52:59;12.50;;;9.47;;
5191;SDS011;2615;44.524;11.284;2023-06-19T04:55:27;11.83;;;8.97;;
5191;SDS011;2615;44.524;11.284;2023-06-19T04:57:56;12.40;;;10.00;;
5191;SDS011;2615;44.524;11.284;2023-06-19T05:00:25;13.70;;;10.13;;
5191;SDS011;2615;44.524;11.284;2023-06-19T05:02:55;12.10;;;8.73;;
5191;SDS011;2615;44.524;11.284;2023-06-19T05:05:27;10.83;;;8.77;;
5191;SDS011;2615;44.524;11.284;2023-06-19T05:07:55;24.57;;;11.73;;
5191;SDS011;2615;44.524;11.284;2023-06-19T05:10:23;11.30;;;8.73;;
5191;SDS011;2615;44.524;11.284;2023-06-19T05:12:52;11.53;;;9.97;;
5191;SDS011;2615;44.524;11.284;2023-06-19T05:15:20;12.73;;;9.27;;
5191;SDS011;2615;44.524;11.284;2023-06-19T05:17:48;13.13;;;10.73;;
5191;SDS011;2615;44.524;11.284;2023-06-19T05:20:17;13.17;;;10.00;;
5191;SDS011;2615;44.524;11.284;2023-06-19T05:22:46;13.27;;;10.07;;
5191;SDS011;2615;44.524;11.284;2023-06-19T05:25:14;12.40;;;9.10;;
5191;SDS011;2615;44.524;11.284;2023-06-19T05:27:42;13.23;;;9.87;;
5191;SDS011;2615;44.524;11.284;2023-06-19T05:30:10;11.03;;;9.50;;
5191;SDS011;2615;44.524;11.284;2023-06-19T05:32:39;19.37;;;10.70;;
5191;SDS011;2615;44.524;11.284;2023-06-19T05:35:07;11.37;;;10.17;;
5191;SDS011;2615;44.524;11.284;2023-06-19T05:37:41;13.50;;;9.00;;
5191;SDS011;2615;44.524;11.284;2023-06-19T05:40:10;13.53;;;9.80;;
5191;SDS011;2615;44.524;11.284;2023-06-19T05:42:39;12.43;;;9.43;;
5191;SDS011;2615;44.524;11.284;2023-06-19T05:45:07;12.20;;;10.07;;
5191;SDS011;2615;44.524;11.284;2023-06-19T05:47:36;11.20;;;9.50;;
5191;SDS011;2615;44.524;11.284;2023-06-19T05:50:04;11.50;;;9.63;;
5191;SDS011;2615;44.524;11.284;2023-06-19T05:52:33;11.13;;;9.20;;
5191;SDS011;2615;44.524;11.284;2023-06-19T05:55:03;11.27;;;9.30;;
5191;SDS011;2615;44.524;11.284;2023-06-19T05:57:32;13.63;;;9.50;;
5191;SDS011;2615;44.524;11.284;2023-06-19T06:00:00;16.83;;;10.30;;
5191;SDS011;2615;44.524;11.284;2023-06-19T06:02:29;14.10;;;10.23;;
5191;SDS011;2615;44.524;11.284;2023-06-19T06:04:57;12.37;;;9.77;;
5191;SDS011;2615;44.524;11.284;2023-06-19T06:07:25;13.00;;;9.97;;
5191;SDS011;2615;44.524;11.284;2023-06-19T06:09:55;10.57;;;9.37;;
5191;SDS011;2615;44.524;11.284;2023-06-19T06:12:24;10.80;;;9.70;;
5191;SDS011;2615;44.524;11.284;2023-06-19T06:14:52;15.60;;;10.80;;
5191;SDS011;2615;44.524;11.284;2023-06-19T06:17:20;9.67;;;8.60;;
5191;SDS011;2615;44.524;11.284;2023-06-19T06:19:49;11.87;;;9.50;;
5191;SDS011;2615;44.524;11.284;2023-06-19T06:22:17;14.40;;;10.27;;
5191;SDS011;2615;44.524;11.284;2023-06-19T06:24:46;12.07;;;10.00;;
5191;SDS011;2615;44.524;11.284;2023-06-19T06:27:14;16.33;;;9.63;;
5191;SDS011;2615;44.524;11.284;2023-06-19T06:29:44;15.90;;;10.03;;
5191;SDS011;2615;44.524;11.284;2023-06-19T06:32:12;17.03;;;9.77;;
5191;SDS011;2615;44.524;11.284;2023-06-19T06:34:40;11.37;;;8.90;;
5191;SDS011;2615;44.524;11.284;2023-06-19T06:37:08;11.17;;;9.37;;
5191;SDS011;2615;44.524;11.284;2023-06-19T06:39:36;13.67;;;10.07;;
5191;SDS011;2615;44.524;11.284;2023-06-19T06:42:05;15.47;;;8.43;;
5191;SDS011;2615;44.524;11.284;2023-06-19T06:44:33;12.70;;;9.33;;
5191;SDS011;2615;44.524;11.284;2023-06-19T06:47:04;13.90;;;9.20;;
5191;SDS011;2615;44.524;11.284;2023-06-19T06:49:32;10.90;;;7.90;;
5191;SDS011;2615;44.524;11.284;2023-06-19T06:52:01;11.17;;;8.97;;
5191;SDS011;2615;44.524;11.284;2023-06-19T06:54:30;13.10;;;9.17;;
5191;SDS011;2615;44.524;11.284;2023-06-19T06:56:58;9.27;;;8.10;;
5191;SDS011;2615;44.524;11.284;2023-06-19T06:59:26;17.17;;;9.87;;
5191;SDS011;2615;44.524;11.284;2023-06-19T07:01:55;12.33;;;8.67;;
5191;SDS011;2615;44.524;11.284;2023-06-19T07:04:25;9.70;;;8.70;;
5191;SDS011;2615;44.524;11.284;2023-06-19T07:06:53;13.73;;;9.10;;
5191;SDS011;2615;44.524;11.284;2023-06-19T07:09:21;13.03;;;8.83;;
5191;SDS011;2615;44.524;11.284;2023-06-19T07:11:49;11.63;;;9.70;;
5191;SDS011;2615;44.524;11.284;2023-06-19T07:14:19;12.67;;;8.63;;
5191;SDS011;2615;44.524;11.284;2023-06-19T07:16:48;12.33;;;8.97;;
5191;SDS011;2615;44.524;11.284;2023-06-19T07:19:16;11.63;;;9.80;;
5191;SDS011;2615;44.524;11.284;2023-06-19T07:21:46;15.77;;;9.83;;
5191;SDS011;2615;44.524;11.284;2023-06-19T07:24:14;10.47;;;9.40;;
5191;SDS011;2615;44.524;11.284;2023-06-19T07:26:43;11.20;;;8.43;;
5191;SDS011;2615;44.524;11.284;2023-06-19T07:29:13;12.57;;;8.37;;
5191;SDS011;2615;44.524;11.284;2023-06-19T07:31:41;11.70;;;9.10;;
5191;SDS011;2615;44.524;11.284;2023-06-19T07:34:09;12.67;;;10.07;;
5191;SDS011;2615;44.524;11.284;2023-06-19T07:36:37;10.77;;;9.50;;
5191;SDS011;2615;44.524;11.284;2023-06-19T07:39:07;12.67;;;9.33;;
5191;SDS011;2615;44.524;11.284;2023-06-19T07:41:36;10.50;;;7.50;;
5191;SDS011;2615;44.524;11.284;2023-06-19T07:44:05;10.90;;;8.90;;
5191;SDS011;2615;44.524;11.284;2023-06-19T07:46:35;8.67;;;7.77;;
5191;SDS011;2615;44.524;11.284;2023-06-19T07:49:03;13.47;;;8.80;;
5191;SDS011;2615;44.524;11.284;2023-06-19T07:51:31;12.23;;;8.10;;
5191;SDS011;2615;44.524;11.284;2023-06-19T07:53:59;11.33;;;8.30;;
5191;SDS011;2615;44.524;11.284;2023-06-19T07:56:29;12.10;;;7.73;;
5191;SDS011;2615;44.524;11.284;2023-06-19T07:58:58;14.30;;;8.27;;
5191;SDS011;2615;44.524;11.284;2023-06-19T08:01:28;12.80;;;7.93;;
5191;SDS011;2615;44.524;11.284;2023-06-19T08:03:56;10.67;;;6.73;;
5191;SDS011;2615;44.524;11.284;2023-06-19T08:06:24;12.90;;;7.17;;
5191;SDS011;2615;44.524;11.284;2023-06-19T08:08:52;20.87;;;7.40;;
5191;SDS011;2615;44.524;11.284;2023-06-19T08:11:20;7.20;;;6.20;;
5191;SDS011;2615;44.524;11.284;2023-06-19T08:13:50;8.10;;;6.57;;
5191;SDS011;2615;44.524;11.284;2023-06-19T08:16:18;8.87;;;6.27;;
5191;SDS011;2615;44.524;11.284;2023-06-19T08:18:46;8.47;;;7.27;;
5191;SDS011;2615;44.524;11.284;2023-06-19T08:21:15;8.70;;;6.93;;
5191;SDS011;2615;44.524;11.284;2023-06-19T08:23:43;10.43;;;7.90;;
5191;SDS011;2615;44.524;11.284;2023-06-19T08:26:11;7.77;;;6.50;;
5191;SDS011;2615;44.524;11.284;2023-06-19T08:28:39;7.50;;;6.30;;
5191;SDS011;2615;44.524;11.284;2023-06-19T08:31:10;8.53;;;6.60;;
5191;SDS011;2615;44.524;11.284;2023-06-19T08:33:38;12.40;;;8.37;;
5191;SDS011;2615;44.524;11.284;2023-06-19T08:36:06;10.40;;;7.70;;
5191;SDS011;2615;44.524;11.284;2023-06-19T08:38:34;18.00;;;8.23;;
5191;SDS011;2615;44.524;11.284;2023-06-19T08:41:03;10.57;;;8.30;;
5191;SDS011;2615;44.524;11.284;2023-06-19T08:43:31;7.73;;;6.97;;
5191;SDS011;2615;44.524;11.284;2023-06-19T08:46:06;10.20;;;7.73;;
5191;SDS011;2615;44.524;11.284;2023-06-19T08:48:38;8.80;;;6.70;;
5191;SDS011;2615;44.524;11.284;2023-06-19T08:51:07;11.40;;;7.40;;
5191;SDS011;2615;44.524;11.284;2023-06-19T08:53:43;11.40;;;7.40;;
5191;SDS011;2615;44.524;11.284;2023-06-19T08:56:12;10.23;;;7.27;;
5191;SDS011;2615;44.524;11.284;2023-06-19T08:58:40;8.80;;;6.83;;
5191;SDS011;2615;44.524;11.284;2023-06-19T09:01:08;7.97;;;6.60;;
5191;SDS011;2615;44.524;11.284;2023-06-19T09:03:36;9.30;;;7.00;;
5191;SDS011;2615;44.524;11.284;2023-06-19T09:06:06;8.23;;;6.97;;
5191;SDS011;2615;44.524;11.284;2023-06-19T09:08:35;8.07;;;6.60;;
5191;SDS011;2615;44.524;11.284;2023-06-19T09:11:04;7.10;;;6.40;;
5191;SDS011;2615;44.524;11.284;2023-06-19T09:13:36;9.80;;;7.50;;
5191;SDS011;2615;44.524;11.284;2023-06-19T09:16:05;7.50;;;6.77;;
5191;SDS011;2615;44.524;11.284;2023-06-19T09:18:45;8.53;;;6.43;;
5191;SDS011;2615;44.524;11.284;2023-06-19T09:21:15;10.70;;;6.73;;
5191;SDS011;2615;44.524;11.284;2023-06-19T09:23:44;10.63;;;7.40;;
5191;SDS011;2615;44.524;11.284;2023-06-19T09:26:13;9.23;;;6.67;;
5191;SDS011;2615;44.524;11.284;2023-06-19T09:28:44;6.10;;;5.50;;
5191;SDS011;2615;44.524;11.284;2023-06-19T09:31:12;8.93;;;7.03;;
5191;SDS011;2615;44.524;11.284;2023-06-19T09:33:40;10.50;;;7.57;;
5191;SDS011;2615;44.524;11.284;2023-06-19T09:36:11;9.00;;;7.27;;
5191;SDS011;2615;44.524;11.284;2023-06-19T09:38:39;7.80;;;6.67;;
5191;SDS011;2615;44.524;11.284;2023-06-19T09:41:08;8.10;;;7.23;;
5191;SDS011;2615;44.524;11.284;2023-06-19T09:43:37;7.40;;;6.60;;
5191;SDS011;2615;44.524;11.284;2023-06-19T09:46:06;11.77;;;7.80;;
5191;SDS011;2615;44.524;11.284;2023-06-19T09:48:35;9.13;;;6.77;;
5191;SDS011;2615;44.524;11.284;2023-06-19T09:51:10;8.53;;;7.30;;
5191;SDS011;2615;44.524;11.284;2023-06-19T09:53:45;8.40;;;6.90;;
5191;SDS011;2615;44.524;11.284;2023-06-19T09:56:15;9.93;;;6.50;;
5191;SDS011;2615;44.524;11.284;2023-06-19T09:58:49;9.10;;;7.77;;
5191;SDS011;2615;44.524;11.284;2023-06-19T10:01:20;7.47;;;5.93;;
5191;SDS011;2615;44.524;11.284;2023-06-19T10:03:50;7.70;;;6.63;;
5191;SDS011;2615;44.524;11.284;2023-06-19T10:06:29;7.50;;;6.80;;
5191;SDS011;2615;44.524;11.284;2023-06-19T10:09:05;9.97;;;7.20;;
5191;SDS011;2615;44.524;11.284;2023-06-19T10:11:49;9.30;;;6.67;;
5191;SDS011;2615;44.524;11.284;2023-06-19T10:14:19;8.93;;;7.70;;
5191;SDS011;2615;44.524;11.284;2023-06-19T10:16:48;7.60;;;6.67;;
5191;SDS011;2615;44.524;11.284;2023-06-19T10:19:17;7.43;;;6.70;;
5191;SDS011;2615;44.524;11.284;2023-06-19T10:21:49;6.83;;;6.20;;
5191;SDS011;2615;44.524;11.284;2023-06-19T10:24:19;7.50;;;6.80;;
5191;SDS011;2615;44.524;11.284;2023-06-19T10:26:55;8.80;;;6.97;;
5191;SDS011;2615;44.524;11.284;2023-06-19T10:29:25;7.83;;;6.90;;
5191;SDS011;2615;44.524;11.284;2023-06-19T10:31:55;8.47;;;7.17;;
5191;SDS011;2615;44.524;11.284;2023-06-19T10:34:32;6.93;;;6.23;;
5191;SDS011;2615;44.524;11.284;2023-06-19T10:37:02;9.83;;;8.20;;
5191;SDS011;2615;44.524;11.284;2023-06-19T10:39:31;8.93;;;7.30;;
5191;SDS011;2615;44.524;11.284;2023-06-19T10:41:59;6.80;;;6.20;;
5191;SDS011;2615;44.524;11.284;2023-06-19T10:44:31;8.40;;;7.13;;
5191;SDS011;2615;44.524;11.284;2023-06-19T10:46:59;7.33;;;6.30;;
5191;SDS011;2615;44.524;11.284;2023-06-19T10:49:27;7.73;;;6.83;;
5191;SDS011;2615;44.524;11.284;2023-06-19T10:51:55;7.83;;;6.93;;
5191;SDS011;2615;44.524;11.284;2023-06-19T10:54:29;7.50;;;6.80;;
5191;SDS011;2615;44.524;11.284;2023-06-19T10:56:57;9.40;;;7.43;;
5191;SDS011;2615;44.524;11.284;2023-06-19T10:59:29;6.70;;;6.07;;
5191;SDS011;2615;44.524;11.284;2023-06-19T11:01:57;8.07;;;6.70;;
5191;SDS011;2615;44.524;11.284;2023-06-19T11:04:25;7.83;;;7.00;;
5191;SDS011;2615;44.524;11.284;2023-06-19T11:06:54;7.53;;;6.73;;
5191;SDS011;2615;44.524;11.284;2023-06-19T11:09:22;7.20;;;6.50;;
5191;SDS011;2615;44.524;11.284;2023-06-19T11:11:52;10.60;;;7.30;;
5191;SDS011;2615;44.524;11.284;2023-06-19T11:14:20;7.10;;;6.40;;
5191;SDS011;2615;44.524;11.284;2023-06-19T11:16:48;7.77;;;7.07;;
5191;SDS011;2615;44.524;11.284;2023-06-19T11:19:17;7.97;;;7.27;;
5191;SDS011;2615;44.524;11.284;2023-06-19T11:21:46;8.27;;;6.83;;
5191;SDS011;2615;44.524;11.284;2023-06-19T11:24:15;7.70;;;6.83;;
5191;SDS011;2615;44.524;11.284;2023-06-19T11:26:45;10.57;;;7.53;;
5191;SDS011;2615;44.524;11.284;2023-06-19T11:29:19;10.10;;;6.87;;
5191;SDS011;2615;44.524;11.284;2023-06-19T11:31:49;7.90;;;7.10;;
5191;SDS011;2615;44.524;11.284;2023-06-19T11:34:20;9.87;;;6.60;;
5191;SDS011;2615;44.524;11.284;2023-06-19T11:37:00;7.87;;;6.60;;
5191;SDS011;2615;44.524;11.284;2023-06-19T11:39:28;8.70;;;6.90;;
5191;SDS011;2615;44.524;11.284;2023-06-19T11:41:58;7.47;;;6.77;;
5191;SDS011;2615;44.524;11.284;2023-06-19T11:44:28;8.87;;;7.60;;
5191;SDS011;2615;44.524;11.284;2023-06-19T11:46:56;7.53;;;6.73;;
5191;SDS011;2615;44.524;11.284;2023-06-19T11:49:25;10.17;;;7.97;;
5191;SDS011;2615;44.524;11.284;2023-06-19T11:51:54;7.50;;;6.80;;
5191;SDS011;2615;44.524;11.284;2023-06-19T11:54:22;8.27;;;7.43;;
5191;SDS011;2615;44.524;11.284;2023-06-19T11:56:50;10.63;;;8.17;;
5191;SDS011;2615;44.524;11.284;2023-06-19T11:59:18;11.03;;;7.23;;
5191;SDS011;2615;44.524;11.284;2023-06-19T12:01:48;7.40;;;6.60;;
5191;SDS011;2615;44.524;11.284;2023-06-19T12:04:16;10.17;;;7.43;;
5191;SDS011;2615;44.524;11.284;2023-06-19T12:06:44;8.40;;;7.17;;
5191;SDS011;2615;44.524;11.284;2023-06-19T12:09:13;8.90;;;6.77;;
5191;SDS011;2615;44.524;11.284;2023-06-19T12:11:41;7.10;;;6.40;;
5191;SDS011;2615;44.524;11.284;2023-06-19T12:14:09;14.93;;;7.70;;
5191;SDS011;2615;44.524;11.284;2023-06-19T12:16:37;7.20;;;6.50;;
5191;SDS011;2615;44.524;11.284;2023-06-19T12:19:06;7.23;;;6.30;;
5191;SDS011;2615;44.524;11.284;2023-06-19T12:21:35;8.23;;;7.00;;
5191;SDS011;2615;44.524;11.284;2023-06-19T12:24:08;8.27;;;6.60;;
5191;SDS011;2615;44.524;11.284;2023-06-19T12:26:36;7.67;;;6.87;;
5191;SDS011;2615;44.524;11.284;2023-06-19T12:29:05;7.37;;;6.67;;
5191;SDS011;2615;44.524;11.284;2023-06-19T12:31:34;8.40;;;7.47;;
5191;SDS011;2615;44.524;11.284;2023-06-19T12:34:03;8.20;;;6.70;;
5191;SDS011;2615;44.524;11.284;2023-06-19T12:36:53;9.70;;;7.20;;
5191;SDS011;2615;44.524;11.284;2023-06-19T12:39:23;8.13;;;7.33;;
5191;SDS011;2615;44.524;11.284;2023-06-19T12:41:52;8.77;;;7.87;;
5191;SDS011;2615;44.524;11.284;2023-06-19T12:44:21;9.03;;;6.70;;
5191;SDS011;2615;44.524;11.284;2023-06-19T12:46:50;8.90;;;7.57;;
5191;SDS011;2615;44.524;11.284;2023-06-19T12:49:19;7.67;;;6.83;;
5191;SDS011;2615;44.524;11.284;2023-06-19T12:51:47;8.50;;;7.00;;
5191;SDS011;2615;44.524;11.284;2023-06-19T12:54:19;16.93;;;8.87;;
5191;SDS011;2615;44.524;11.284;2023-06-19T12:56:47;18.73;;;8.47;;
5191;SDS011;2615;44.524;11.284;2023-06-19T12:59:17;7.37;;;6.63;;
5191;SDS011;2615;44.524;11.284;2023-06-19T13:01:45;8.37;;;7.47;;
5191;SDS011;2615;44.524;11.284;2023-06-19T13:04:13;8.57;;;7.70;;
5191;SDS011;2615;44.524;11.284;2023-06-19T13:06:42;8.47;;;7.67;;
5191;SDS011;2615;44.524;11.284;2023-06-19T13:09:10;10.53;;;6.97;;
5191;SDS011;2615;44.524;11.284;2023-06-19T13:11:40;9.03;;;7.10;;
5191;SDS011;2615;44.524;11.284;2023-06-19T13:14:08;9.87;;;7.67;;
5191;SDS011;2615;44.524;11.284;2023-06-19T13:16:36;9.83;;;7.67;;
5191;SDS011;2615;44.524;11.284;2023-06-19T13:19:07;8.57;;;6.87;;
5191;SDS011;2615;44.524;11.284;2023-06-19T13:21:35;7.87;;;7.17;;
5191;SDS011;2615;44.524;11.284;2023-06-19T13:24:04;7.10;;;6.40;;
5191;SDS011;2615;44.524;11.284;2023-06-19T13:26:32;77.67;;;17.33;;
5191;SDS011;2615;44.524;11.284;2023-06-19T13:29:02;13.63;;;7.27;;
5191;SDS011;2615;44.524;11.284;2023-06-19T13:31:30;8.50;;;7.30;;
5191;SDS011;2615;44.524;11.284;2023-06-19T13:33:58;7.60;;;6.80;;
5191;SDS011;2615;44.524;11.284;2023-06-19T13:36:26;7.30;;;6.53;;
5191;SDS011;2615;44.524;11.284;2023-06-19T13:38:55;7.10;;;6.40;;
5191;SDS011;2615;44.524;11.284;2023-06-19T13:41:23;7.53;;;6.83;;
5191;SDS011;2615;44.524;11.284;2023-06-19T13:43:53;8.30;;;6.70;;
5191;SDS011;2615;44.524;11.284;2023-06-19T13:46:22;8.20;;;7.40;;
5191;SDS011;2615;44.524;11.284;2023-06-19T13:48:51;8.77;;;7.63;;
5191;SDS011;2615;44.524;11.284;2023-06-19T13:51:19;8.87;;;7.90;;
5191;SDS011;2615;44.524;11.284;2023-06-19T13:53:48;9.70;;;7.70;;
5191;SDS011;2615;44.524;11.284;2023-06-19T13:56:17;9.67;;;6.93;;
5191;SDS011;2615;44.524;11.284;2023-06-19T13:58:45;9.00;;;7.80;;
5191;SDS011;2615;44.524;11.284;2023-06-19T14:01:14;9.70;;;7.53;;
5191;SDS011;2615;44.524;11.284;2023-06-19T14:03:43;7.67;;;6.90;;
5191;SDS011;2615;44.524;11.284;2023-06-19T14:06:12;16.00;;;6.87;;
5191;SDS011;2615;44.524;11.284;2023-06-19T14:08:40;8.40;;;7.00;;
5191;SDS011;2615;44.524;11.284;2023-06-19T14:11:08;9.07;;;6.83;;
5191;SDS011;2615;44.524;11.284;2023-06-19T14:13:36;9.27;;;6.23;;
5191;SDS011;2615;44.524;11.284;2023-06-19T14:16:04;8.33;;;7.20;;
5191;SDS011;2615;44.524;11.284;2023-06-19T14:18:32;7.67;;;6.87;;
5191;SDS011;2615;44.524;11.284;2023-06-19T14:21:04;11.40;;;6.90;;
5191;SDS011;2615;44.524;11.284;2023-06-19T14:23:32;12.20;;;7.50;;
5191;SDS011;2615;44.524;11.284;2023-06-19T14:26:05;7.73;;;6.93;;
5191;SDS011;2615;44.524;11.284;2023-06-19T14:28:33;9.60;;;7.43;;
5191;SDS011;2615;44.524;11.284;2023-06-19T14:31:01;8.07;;;7.23;;
5191;SDS011;2615;44.524;11.284;2023-06-19T14:33:29;14.50;;;8.40;;
5191;SDS011;2615;44.524;11.284;2023-06-19T14:35:59;9.63;;;7.13;;
5191;SDS011;2615;44.524;11.284;2023-06-19T14:38:30;9.70;;;8.70;;
5191;SDS011;2615;44.524;11.284;2023-06-19T14:41:00;10.73;;;7.73;;
5191;SDS011;2615;44.524;11.284;2023-06-19T14:43:28;8.27;;;6.57;;
5191;SDS011;2615;44.524;11.284;2023-06-19T14:45:59;11.10;;;7.30;;
5191;SDS011;2615;44.524;11.284;2023-06-19T14:48:30;9.23;;;7.70;;
5191;SDS011;2615;44.524;11.284;2023-06-19T14:50:58;9.97;;;8.10;;
5191;SDS011;2615;44.524;11.284;2023-06-19T14:53:26;10.27;;;7.50;;
5191;SDS011;2615;44.524;11.284;2023-06-19T14:55:55;23.83;;;7.60;;
5191;SDS011;2615;44.524;11.284;2023-06-19T14:58:23;8.63;;;7.27;;
5191;SDS011;2615;44.524;11.284;2023-06-19T15:00:55;10.03;;;7.23;;
5191;SDS011;2615;44.524;11.284;2023-06-19T15:03:24;9.47;;;7.83;;